createdAt,value
2023-02-14T00:01:10.354Z,13.10
2023-02-14T00:03:40.192Z,11.60
2023-02-14T00:06:09.798Z,11.67
2023-02-14T00:08:41.026Z,11.63
2023-02-14T00:11:09.915Z,12.07
2023-02-14T00:13:39.025Z,12.83
2023-02-14T00:16:06.789Z,11.20
2023-02-14T00:18:54.778Z,11.50
2023-02-14T00:21:23.304Z,11.57
2023-02-14T00:23:52.963Z,11.73
2023-02-14T00:26:21.349Z,11.63
2023-02-14T00:28:49.905Z,12.73
2023-02-14T00:31:18.355Z,11.70
2023-02-14T00:33:47.070Z,13.80
2023-02-14T00:36:15.745Z,14.00
2023-02-14T00:38:45.789Z,13.43
2023-02-14T00:41:19.339Z,12.33
2023-02-14T00:43:48.221Z,13.17
2023-02-14T00:46:17.408Z,11.67
2023-02-14T00:48:46.686Z,12.47
2023-02-14T00:51:18.524Z,13.27
2023-02-14T00:54:03.564Z,14.23
2023-02-14T00:56:35.048Z,13.30
2023-02-14T00:59:04.879Z,12.53
2023-02-14T01:01:35.186Z,14.03
2023-02-14T01:04:05.074Z,15.77
2023-02-14T01:06:33.633Z,14.97
2023-02-14T01:09:02.680Z,12.80
2023-02-14T01:11:31.070Z,16.17
2023-02-14T01:14:01.887Z,37.40
2023-02-14T01:16:31.843Z,13.10
2023-02-14T01:19:02.568Z,11.40
2023-02-14T01:21:34.983Z,11.83
2023-02-14T01:24:06.855Z,14.63
2023-02-14T01:26:36.562Z,15.83
2023-02-14T01:29:07.735Z,12.80
2023-02-14T01:31:37.391Z,15.73
2023-02-14T01:34:06.308Z,22.03
2023-02-14T01:36:38.360Z,24.63
2023-02-14T01:39:09.038Z,18.73
2023-02-14T01:41:43.325Z,24.90
2023-02-14T01:44:53.532Z,20.70
2023-02-14T01:47:23.601Z,15.90
2023-02-14T01:49:58.399Z,14.20
2023-02-14T01:52:31.877Z,16.00
2023-02-14T01:55:03.779Z,30.37
2023-02-14T01:57:37.094Z,41.30
2023-02-14T02:00:25.061Z,26.30
2023-02-14T02:02:55.632Z,26.20
2023-02-14T02:05:24.676Z,29.33
2023-02-14T02:07:58.118Z,37.43
2023-02-14T02:10:26.410Z,20.87
2023-02-14T02:12:55.267Z,24.33
2023-02-14T02:15:27.478Z,21.10
2023-02-14T02:18:04.564Z,17.40
2023-02-14T02:20:56.444Z,16.97
2023-02-14T02:23:59.767Z,17.10
2023-02-14T02:26:58.119Z,16.50
2023-02-14T02:29:53.024Z,16.53
2023-02-14T02:33:01.787Z,18.57
2023-02-14T02:35:49.880Z,18.93
2023-02-14T02:38:32.841Z,16.93
2023-02-14T02:41:09.412Z,19.73
2023-02-14T02:43:48.563Z,17.13
2023-02-14T02:46:43.135Z,17.77
2023-02-14T02:49:36.807Z,20.20
2023-02-14T02:52:29.633Z,17.73
2023-02-14T02:55:03.790Z,21.47
2023-02-14T02:57:35.839Z,19.63
2023-02-14T03:00:07.313Z,17.33
2023-02-14T03:02:59.892Z,22.03
2023-02-14T03:05:29.118Z,18.07
2023-02-14T03:07:58.711Z,17.33
2023-02-14T03:10:31.127Z,15.10
2023-02-14T03:13:41.665Z,18.20
2023-02-14T03:16:27.150Z,18.70
2023-02-14T03:19:27.574Z,17.80
2023-02-14T03:22:00.725Z,16.80
2023-02-14T03:24:40.765Z,18.67
2023-02-14T03:27:16.720Z,16.10
2023-02-14T03:29:57.178Z,16.37
2023-02-14T03:32:37.005Z,16.63
2023-02-14T03:35:12.492Z,17.27
2023-02-14T03:37:49.051Z,18.13
2023-02-14T03:40:23.427Z,17.90
2023-02-14T03:42:55.862Z,24.03
2023-02-14T03:45:28.847Z,21.07
2023-02-14T03:48:02.188Z,30.93
2023-02-14T03:50:31.793Z,28.57
2023-02-14T03:53:01.670Z,28.27
2023-02-14T03:55:36.529Z,25.67
2023-02-14T03:58:14.018Z,27.10
2023-02-14T04:00:44.502Z,26.87
2023-02-14T04:03:15.571Z,28.77
2023-02-14T04:05:52.195Z,28.50
2023-02-14T04:08:25.342Z,25.67
2023-02-14T04:10:57.617Z,27.57
2023-02-14T04:13:26.249Z,25.27
2023-02-14T04:15:54.544Z,22.90
2023-02-14T04:18:41.026Z,24.53
2023-02-14T04:21:09.328Z,23.90
2023-02-14T04:23:38.175Z,21.10
2023-02-14T04:26:08.180Z,25.10
2023-02-14T04:28:37.048Z,21.77
2023-02-14T04:31:07.089Z,21.07
2023-02-14T04:33:36.200Z,22.93
2023-02-14T04:36:05.439Z,21.03
2023-02-14T04:38:34.216Z,23.53
2023-02-14T04:41:03.331Z,22.03
2023-02-14T04:43:33.255Z,21.07
2023-02-14T04:46:03.808Z,21.93
2023-02-14T04:48:33.116Z,22.00
2023-02-14T04:51:01.786Z,22.70
2023-02-14T04:53:30.536Z,18.47
2023-02-14T04:55:59.187Z,17.70
2023-02-14T04:58:27.796Z,16.53
2023-02-14T05:00:57.705Z,17.90
2023-02-14T05:03:26.772Z,17.80
2023-02-14T05:05:55.243Z,17.17
2023-02-14T05:08:24.298Z,16.03
2023-02-14T05:10:52.664Z,15.77
2023-02-14T05:13:21.306Z,17.17
2023-02-14T05:15:50.132Z,21.10
2023-02-14T05:18:20.632Z,18.43
2023-02-14T05:20:50.799Z,15.43
2023-02-14T05:23:19.591Z,16.57
2023-02-14T05:25:49.394Z,18.10
2023-02-14T05:28:18.834Z,17.13
2023-02-14T05:30:47.886Z,18.00
2023-02-14T05:33:16.357Z,18.27
2023-02-14T05:35:46.013Z,18.47
2023-02-14T05:38:14.425Z,17.47
2023-02-14T05:40:43.854Z,18.13
2023-02-14T05:43:12.628Z,16.13
2023-02-14T05:45:41.266Z,17.23
2023-02-14T05:48:09.971Z,17.57
2023-02-14T05:50:38.420Z,21.60
2023-02-14T05:53:08.953Z,21.47
2023-02-14T05:55:37.422Z,25.93
2023-02-14T05:58:06.518Z,26.60
2023-02-14T06:00:35.553Z,26.87
2023-02-14T06:03:04.220Z,26.30
2023-02-14T06:05:33.358Z,26.60
2023-02-14T06:08:01.669Z,34.67
2023-02-14T06:10:34.572Z,25.67
2023-02-14T06:13:02.987Z,30.87
2023-02-14T06:15:31.492Z,31.53
2023-02-14T06:17:59.647Z,32.37
2023-02-14T06:20:29.377Z,32.70
2023-02-14T06:22:57.882Z,29.73
2023-02-14T06:25:27.862Z,23.47
2023-02-14T06:27:59.095Z,25.80
2023-02-14T06:30:29.537Z,23.77
2023-02-14T06:32:57.985Z,22.57
2023-02-14T06:35:27.792Z,20.27
2023-02-14T06:38:15.609Z,18.50
2023-02-14T06:40:51.658Z,20.67
2023-02-14T06:43:23.047Z,18.33
2023-02-14T06:45:51.796Z,20.83
2023-02-14T06:48:20.947Z,20.00
2023-02-14T06:50:49.759Z,20.60
2023-02-14T06:53:18.869Z,21.67
2023-02-14T06:55:49.163Z,20.83
2023-02-14T06:58:18.102Z,18.70
2023-02-14T07:00:48.847Z,19.67
2023-02-14T07:03:19.125Z,17.03
2023-02-14T07:05:50.550Z,19.63
2023-02-14T07:08:20.572Z,25.30
2023-02-14T07:10:49.875Z,33.13
2023-02-14T07:13:18.934Z,30.30
2023-02-14T07:15:50.159Z,28.43
2023-02-14T07:18:19.221Z,24.47
2023-02-14T07:20:47.933Z,27.97
2023-02-14T07:23:23.898Z,23.93
2023-02-14T07:25:52.805Z,24.03
2023-02-14T07:28:23.994Z,24.10
2023-02-14T07:30:54.801Z,22.87
2023-02-14T07:33:23.889Z,21.33
2023-02-14T07:35:53.608Z,25.20
2023-02-14T07:38:37.410Z,23.07
2023-02-14T07:41:06.732Z,22.50
2023-02-14T07:43:36.871Z,20.73
2023-02-14T07:46:07.606Z,23.80
2023-02-14T07:48:52.801Z,19.50
2023-02-14T07:51:21.526Z,20.03
2023-02-14T07:53:51.258Z,19.13
2023-02-14T07:56:19.922Z,17.83
2023-02-14T07:58:49.734Z,22.37
2023-02-14T08:01:21.032Z,23.30
2023-02-14T08:03:51.476Z,23.63
2023-02-14T08:06:21.172Z,24.90
2023-02-14T08:08:50.327Z,21.37
2023-02-14T08:11:33.255Z,23.43
2023-02-14T08:14:02.736Z,19.97
2023-02-14T08:16:35.314Z,21.50
2023-02-14T08:19:05.518Z,21.13
2023-02-14T08:21:34.343Z,21.77
2023-02-14T08:24:22.448Z,22.63
2023-02-14T08:26:51.858Z,20.80
2023-02-14T08:29:21.105Z,20.67
2023-02-14T08:31:52.895Z,20.57
2023-02-14T08:34:21.734Z,20.93
2023-02-14T08:36:52.182Z,20.43
2023-02-14T08:39:20.608Z,20.43
2023-02-14T08:41:50.671Z,20.67
2023-02-14T08:44:25.630Z,18.10
2023-02-14T08:46:58.003Z,18.27
2023-02-14T08:49:28.127Z,20.93
2023-02-14T08:51:58.560Z,18.67
2023-02-14T08:54:26.954Z,17.87
2023-02-14T08:56:58.102Z,16.57
2023-02-14T08:59:27.007Z,18.13
2023-02-14T09:01:58.972Z,17.07
2023-02-14T09:04:47.019Z,17.30
2023-02-14T09:07:17.021Z,16.37
2023-02-14T09:09:45.224Z,15.30
2023-02-14T09:12:14.244Z,16.10
2023-02-14T09:14:45.667Z,17.80
2023-02-14T09:17:19.519Z,17.87
2023-02-14T09:19:50.897Z,15.50
2023-02-14T09:22:21.058Z,16.50
2023-02-14T09:25:08.125Z,16.50
2023-02-14T09:27:37.401Z,16.13
2023-02-14T09:30:06.764Z,16.27
2023-02-14T09:32:37.002Z,15.03
2023-02-14T09:35:09.862Z,18.77
2023-02-14T09:37:58.385Z,16.60
2023-02-14T09:40:34.034Z,20.83
2023-02-14T09:43:17.279Z,19.90
2023-02-14T09:45:52.413Z,17.10
2023-02-14T09:48:34.764Z,18.13
2023-02-14T09:51:12.871Z,18.67
2023-02-14T09:53:47.377Z,18.20
2023-02-14T09:56:25.666Z,16.93
2023-02-14T09:59:08.918Z,16.60
2023-02-14T10:01:41.995Z,17.00
2023-02-14T10:04:32.529Z,17.33
2023-02-14T10:07:10.340Z,16.20
2023-02-14T10:09:54.243Z,14.60
2023-02-14T10:12:28.367Z,15.47
2023-02-14T10:15:05.839Z,14.37
2023-02-14T10:17:41.824Z,16.30
2023-02-14T10:20:22.626Z,13.93
2023-02-14T10:22:55.683Z,15.07
2023-02-14T10:25:29.922Z,16.73
2023-02-14T10:28:02.510Z,18.87
2023-02-14T10:30:38.663Z,16.60
2023-02-14T10:33:16.482Z,16.30
2023-02-14T10:35:49.002Z,15.20
2023-02-14T10:38:34.086Z,15.87
2023-02-14T10:41:18.971Z,16.43
2023-02-14T10:44:00.793Z,16.50
2023-02-14T10:46:40.178Z,14.90
2023-02-14T10:49:23.812Z,14.33
2023-02-14T10:51:59.334Z,15.07
2023-02-14T10:54:30.103Z,14.93
2023-02-14T10:57:23.080Z,15.87
2023-02-14T10:59:55.149Z,15.87
2023-02-14T11:02:27.833Z,16.13
2023-02-14T11:04:57.232Z,16.23
2023-02-14T11:07:27.021Z,15.83
2023-02-14T11:09:55.811Z,14.30
2023-02-14T11:12:37.425Z,16.17
2023-02-14T11:15:23.470Z,14.73
2023-02-14T11:18:21.478Z,14.77
2023-02-14T11:21:02.742Z,14.87
2023-02-14T11:23:36.517Z,13.73
2023-02-14T11:26:08.483Z,15.13
2023-02-14T11:28:44.238Z,13.57
2023-02-14T11:31:13.727Z,14.00
2023-02-14T11:33:45.715Z,14.50
2023-02-14T11:36:17.483Z,15.97
2023-02-14T11:38:57.528Z,15.93
2023-02-14T11:41:27.334Z,14.60
2023-02-14T11:44:15.568Z,12.17
2023-02-14T11:46:53.108Z,12.30
2023-02-14T11:49:29.723Z,15.90
2023-02-14T11:52:00.134Z,15.43
2023-02-14T11:54:35.650Z,14.50
2023-02-14T11:57:07.659Z,12.80
2023-02-14T11:59:42.201Z,12.37
2023-02-14T12:02:27.904Z,15.33
2023-02-14T12:05:00.729Z,13.97
2023-02-14T12:07:33.103Z,13.50
2023-02-14T12:10:19.759Z,17.37
2023-02-14T12:12:57.948Z,11.83
2023-02-14T12:15:37.038Z,11.03
2023-02-14T12:18:37.176Z,10.87
2023-02-14T12:21:20.141Z,10.40
2023-02-14T12:23:59.879Z,10.70
2023-02-14T12:26:34.794Z,11.67
2023-02-14T12:29:14.107Z,10.67
2023-02-14T12:31:44.084Z,11.37
2023-02-14T12:34:15.852Z,12.40
2023-02-14T12:37:13.106Z,12.13
2023-02-14T12:39:57.226Z,9.30
2023-02-14T12:42:41.266Z,9.57
2023-02-14T12:45:18.871Z,9.57
2023-02-14T12:47:59.571Z,10.20
2023-02-14T12:50:36.153Z,9.53
2023-02-14T12:53:33.434Z,10.83
2023-02-14T12:56:10.863Z,10.33
2023-02-14T12:58:50.936Z,9.47
2023-02-14T13:01:57.530Z,9.40
2023-02-14T13:04:55.183Z,8.90
2023-02-14T13:07:39.895Z,9.50
2023-02-14T13:10:25.386Z,9.50
2023-02-14T13:13:02.470Z,9.07
2023-02-14T13:15:40.127Z,8.47
2023-02-14T13:18:16.221Z,10.87
2023-02-14T13:20:53.403Z,9.30
2023-02-14T13:23:33.202Z,9.13
2023-02-14T13:26:14.037Z,8.77
2023-02-14T13:28:50.056Z,9.50
2023-02-14T13:31:21.850Z,9.63
2023-02-14T13:33:53.797Z,10.03
2023-02-14T13:36:22.939Z,10.63
2023-02-14T13:41:33.541Z,9.20
2023-02-14T13:44:49.138Z,9.37
2023-02-14T13:47:23.250Z,8.60
2023-02-14T13:50:03.395Z,19.53
2023-02-14T13:52:44.109Z,17.83
2023-02-14T13:55:21.576Z,8.40
2023-02-14T13:58:03.731Z,59.97
2023-02-14T14:00:50.194Z,11.47
2023-02-14T14:04:05.534Z,20.27
2023-02-14T14:07:08.716Z,15.13
2023-02-14T14:10:03.160Z,10.47
2023-02-14T14:12:46.044Z,9.93
2023-02-14T14:15:18.712Z,12.80
2023-02-14T14:18:26.355Z,11.23
2023-02-14T14:20:57.628Z,11.43
2023-02-14T14:23:38.797Z,13.70
2023-02-14T14:26:35.445Z,13.40
2023-02-14T14:29:11.433Z,8.40
2023-02-14T14:31:42.904Z,9.00
2023-02-14T14:34:19.003Z,9.90
2023-02-14T14:36:50.768Z,12.57
2023-02-14T14:39:29.015Z,12.10
2023-02-14T14:42:07.203Z,8.70
2023-02-14T14:44:37.017Z,10.93
2023-02-14T14:47:05.904Z,12.10
2023-02-14T14:49:35.679Z,9.83
2023-02-14T14:52:07.952Z,9.40
2023-02-14T14:54:36.605Z,11.03
2023-02-14T14:57:07.593Z,10.13
2023-02-14T14:59:39.626Z,9.63
2023-02-14T15:02:23.387Z,9.93
2023-02-14T15:04:55.689Z,10.00
2023-02-14T15:07:39.045Z,10.30
2023-02-14T15:10:28.578Z,9.93
2023-02-14T15:13:17.908Z,10.73
2023-02-14T15:15:51.051Z,9.43
2023-02-14T15:18:33.953Z,9.53
2023-02-14T15:21:20.233Z,9.77
2023-02-14T15:23:56.198Z,11.53
2023-02-14T15:26:29.983Z,9.67
2023-02-14T15:29:01.385Z,9.17
2023-02-14T15:31:33.159Z,10.90
2023-02-14T15:34:03.208Z,9.83
2023-02-14T15:36:32.954Z,10.57
2023-02-14T15:39:05.449Z,14.63
2023-02-14T15:41:33.971Z,11.20
2023-02-14T15:44:03.188Z,11.53
2023-02-14T15:46:57.004Z,16.07
2023-02-14T15:49:47.448Z,16.17
2023-02-14T15:52:16.595Z,19.67
2023-02-14T15:54:47.970Z,18.33
2023-02-14T15:57:25.018Z,17.20
2023-02-14T15:59:54.167Z,15.77
2023-02-14T16:02:31.388Z,16.47
2023-02-14T16:05:19.232Z,18.83
2023-02-14T16:08:03.533Z,16.73
2023-02-14T16:11:02.915Z,14.67
2023-02-14T16:13:34.759Z,13.83
2023-02-14T16:16:05.267Z,14.03
2023-02-14T16:18:39.094Z,13.40
2023-02-14T16:21:19.514Z,15.73
2023-02-14T16:24:10.883Z,15.20
2023-02-14T16:26:44.575Z,15.80
2023-02-14T16:29:15.481Z,16.30
2023-02-14T16:32:06.227Z,16.60
2023-02-14T16:34:36.334Z,15.67
2023-02-14T16:37:09.385Z,16.23
2023-02-14T16:39:40.642Z,23.30
2023-02-14T16:42:15.884Z,21.43
2023-02-14T16:44:45.144Z,16.63
2023-02-14T16:47:16.818Z,19.77
2023-02-14T16:49:46.914Z,23.57
2023-02-14T16:52:23.440Z,21.73
2023-02-14T16:54:53.549Z,27.73
2023-02-14T16:57:28.272Z,22.07
2023-02-14T16:59:57.807Z,26.13
2023-02-14T17:02:29.426Z,25.43
2023-02-14T17:04:58.282Z,27.07
2023-02-14T17:07:32.129Z,22.83
2023-02-14T17:10:06.214Z,19.37
2023-02-14T17:12:41.233Z,17.23
2023-02-14T17:15:15.667Z,17.00
2023-02-14T17:17:47.774Z,16.43
2023-02-14T17:20:19.483Z,16.87
2023-02-14T17:22:49.884Z,13.40
2023-02-14T17:25:22.326Z,19.13
2023-02-14T17:27:58.176Z,16.30
2023-02-14T17:30:28.772Z,15.03
2023-02-14T17:33:03.962Z,21.60
2023-02-14T17:35:35.576Z,19.73
2023-02-14T17:38:07.627Z,58.50
2023-02-14T17:40:36.680Z,53.10
2023-02-14T17:43:07.343Z,72.80
2023-02-14T17:45:36.402Z,161.57
2023-02-14T17:48:06.975Z,174.20
2023-02-14T17:50:36.601Z,138.03
2023-02-14T17:53:06.732Z,81.27
2023-02-14T17:55:38.102Z,33.17
2023-02-14T17:58:08.879Z,52.37
2023-02-14T18:00:39.243Z,123.50
2023-02-14T18:03:09.560Z,60.80
2023-02-14T18:05:42.636Z,66.47
2023-02-14T18:08:14.127Z,110.00
2023-02-14T18:10:43.635Z,145.00
2023-02-14T18:13:17.431Z,51.03
2023-02-14T18:15:47.694Z,66.30
2023-02-14T18:18:20.871Z,35.97
2023-02-14T18:20:55.390Z,43.57
2023-02-14T18:23:24.115Z,81.53
2023-02-14T18:25:55.683Z,59.80
2023-02-14T18:28:27.124Z,51.87
2023-02-14T18:30:58.090Z,35.83
2023-02-14T18:33:27.151Z,49.17
2023-02-14T18:35:56.741Z,52.13
2023-02-14T18:38:26.347Z,47.57
2023-02-14T18:41:03.267Z,43.10
2023-02-14T18:43:33.525Z,40.20
2023-02-14T18:46:05.225Z,40.40
2023-02-14T18:48:36.138Z,36.73
2023-02-14T18:51:08.879Z,34.83
2023-02-14T18:53:39.229Z,33.80
2023-02-14T18:56:09.442Z,68.70
2023-02-14T18:58:40.775Z,58.93
2023-02-14T19:01:10.121Z,59.53
2023-02-14T19:03:39.752Z,107.00
2023-02-14T19:06:09.948Z,201.20
2023-02-14T19:08:43.640Z,201.37
2023-02-14T19:11:18.197Z,192.93
2023-02-14T19:13:52.512Z,168.07
2023-02-14T19:16:24.999Z,102.60
2023-02-14T19:18:54.090Z,83.73
2023-02-14T19:21:26.355Z,98.53
2023-02-14T19:24:00.344Z,62.10
2023-02-14T19:26:32.857Z,65.40
2023-02-14T19:29:08.411Z,58.17
2023-02-14T19:31:40.076Z,55.77
2023-02-14T19:34:15.773Z,49.70
2023-02-14T19:36:44.623Z,42.10
2023-02-14T19:39:14.354Z,37.47
2023-02-14T19:41:43.653Z,30.53
2023-02-14T19:44:17.255Z,52.80
2023-02-14T19:46:50.115Z,36.83
2023-02-14T19:49:21.261Z,37.37
2023-02-14T19:51:52.354Z,42.97
2023-02-14T19:54:21.967Z,36.03
2023-02-14T19:56:51.423Z,38.13
2023-02-14T19:59:23.642Z,33.40
2023-02-14T20:01:54.697Z,28.77
2023-02-14T20:04:27.512Z,27.43
2023-02-14T20:06:57.877Z,29.37
2023-02-14T20:09:26.658Z,26.70
2023-02-14T20:11:57.164Z,28.87
2023-02-14T20:14:29.383Z,25.03
2023-02-14T20:17:00.217Z,27.63
2023-02-14T20:19:33.106Z,26.00
2023-02-14T20:22:02.037Z,26.67
2023-02-14T20:24:33.236Z,24.87
2023-02-14T20:27:04.436Z,21.83
2023-02-14T20:29:35.470Z,21.03
2023-02-14T20:32:07.085Z,20.83
2023-02-14T20:34:37.049Z,18.10
2023-02-14T20:37:07.176Z,18.47
2023-02-14T20:39:36.564Z,19.37
2023-02-14T20:42:09.076Z,18.17
2023-02-14T20:44:41.551Z,15.60
2023-02-14T20:47:11.366Z,17.13
2023-02-14T20:49:44.605Z,16.63
2023-02-14T20:52:18.106Z,15.73
2023-02-14T20:54:46.859Z,15.00
2023-02-14T20:57:18.970Z,14.33
2023-02-14T21:02:26.212Z,17.50
2023-02-14T21:04:55.620Z,15.93
2023-02-14T21:07:24.492Z,21.80
2023-02-14T21:09:53.572Z,24.50
2023-02-14T21:12:22.176Z,26.07
2023-02-14T21:14:53.064Z,25.63
2023-02-14T21:17:21.290Z,18.40
2023-02-14T21:19:50.849Z,15.67
2023-02-14T21:22:19.596Z,15.10
2023-02-14T21:24:48.198Z,17.53
2023-02-14T21:27:17.675Z,14.63
2023-02-14T21:29:46.878Z,14.07
2023-02-14T21:32:17.375Z,14.27
2023-02-14T21:34:46.941Z,14.20
2023-02-14T21:37:15.822Z,14.30
2023-02-14T21:39:45.510Z,13.20
2023-02-14T21:42:14.138Z,12.63
2023-02-14T21:45:02.021Z,13.27
2023-02-14T21:47:32.321Z,11.63
2023-02-14T21:50:18.710Z,13.33
2023-02-14T21:52:48.340Z,13.20
2023-02-14T21:55:18.116Z,12.13
2023-02-14T21:57:46.681Z,11.50
2023-02-14T22:00:15.501Z,11.50
2023-02-14T22:02:45.478Z,12.53
2023-02-14T22:05:14.021Z,11.23
2023-02-14T22:07:43.058Z,11.37
2023-02-14T22:10:12.847Z,12.30
2023-02-14T22:12:41.743Z,10.83
2023-02-14T22:15:10.704Z,12.97
2023-02-14T22:17:39.451Z,12.93
2023-02-14T22:20:11.299Z,11.30
2023-02-14T22:22:40.575Z,12.00
2023-02-14T22:25:09.661Z,13.20
2023-02-14T22:27:39.958Z,11.47
2023-02-14T22:30:10.118Z,11.43
2023-02-14T22:32:42.866Z,12.47
2023-02-14T22:35:13.137Z,11.60
2023-02-14T22:37:42.989Z,11.47
2023-02-14T22:40:16.974Z,11.97
2023-02-14T22:42:45.752Z,12.00
2023-02-14T22:45:14.385Z,11.53
2023-02-14T22:47:43.075Z,12.17
2023-02-14T22:50:13.279Z,11.03
2023-02-14T22:52:42.241Z,11.63
2023-02-14T22:55:11.367Z,11.77
2023-02-14T22:57:40.050Z,12.57
2023-02-14T23:00:11.652Z,12.30
2023-02-14T23:02:45.114Z,12.00
2023-02-14T23:05:17.073Z,12.93
2023-02-14T23:07:51.284Z,13.50
2023-02-14T23:10:20.793Z,11.70
2023-02-14T23:13:07.411Z,13.00
2023-02-14T23:15:55.353Z,11.97
2023-02-14T23:18:42.233Z,14.53
2023-02-14T23:21:32.775Z,13.27
2023-02-14T23:24:01.879Z,12.40
2023-02-14T23:26:30.917Z,12.37
2023-02-14T23:29:00.585Z,12.43
2023-02-14T23:31:30.178Z,13.37
2023-02-14T23:35:04.016Z,11.33
2023-02-14T23:37:35.537Z,13.23
2023-02-14T23:40:06.962Z,11.50
2023-02-14T23:42:37.416Z,15.47
2023-02-14T23:45:20.973Z,14.87
2023-02-14T23:47:53.495Z,13.93
2023-02-14T23:50:23.326Z,12.70
2023-02-14T23:52:53.616Z,13.37
2023-02-14T23:55:22.612Z,13.63
2023-02-14T23:57:52.832Z,13.63
